Time;durP1;ratioP1;P1;durP2;ratioP2;P2;SDS_P1;SDS_P2;PMS_P1;PMS_P2;Temp;Humidity;BMP_temperature;BMP_pressure;BME280_temperature;BME280_humidity;BME280_pressure;Samples;Min_cycle;Max_cycle;Signal;HPM_P1;HPM_P2
2023/10/08 00:00:43;;;;;;;4.90;3.50;;;;;;;14.69;100.00;97490.44;4995213;28;20194;-57
2023/10/08 00:03:11;;;;;;;4.10;3.20;;;;;;;14.66;100.00;97485.53;4947213;28;20244;-56
2023/10/08 00:05:40;;;;;;;4.43;3.60;;;;;;;14.71;100.00;97482.25;4933310;28;20832;-59
2023/10/08 00:08:09;;;;;;;7.47;4.20;;;;;;;14.65;100.00;97483.03;4995410;28;20825;-55
2023/10/08 00:10:37;;;;;;;5.47;3.67;;;;;;;14.73;100.00;97480.22;4995352;28;20514;-57
2023/10/08 00:13:07;;;;;;;4.93;3.77;;;;;;;14.65;100.00;97467.88;4997228;28;20735;-57
2023/10/08 00:15:36;;;;;;;3.87;3.53;;;;;;;14.73;100.00;97475.72;4993683;28;20255;-58
2023/10/08 00:18:06;;;;;;;3.50;2.93;;;;;;;14.68;100.00;97472.81;4995048;28;20205;-59
2023/10/08 00:20:42;;;;;;;3.40;3.10;;;;;;;14.72;100.00;97468.72;4905694;28;20530;-58
2023/10/08 00:23:12;;;;;;;3.60;3.10;;;;;;;14.64;100.00;97468.91;5000913;28;20204;-58
2023/10/08 00:25:40;;;;;;;3.93;3.37;;;;;;;14.68;100.00;97471.97;4993782;28;20209;-60
2023/10/08 00:28:12;;;;;;;4.33;3.43;;;;;;;14.68;100.00;97459.47;4997150;28;20244;-59
2023/10/08 00:30:41;;;;;;;4.10;3.70;;;;;;;14.66;100.00;97460.69;4948150;28;21166;-58
2023/10/08 00:33:11;;;;;;;4.67;3.60;;;;;;;14.65;100.00;97467.88;4999723;28;20384;-59
2023/10/08 00:35:40;;;;;;;3.63;3.27;;;;;;;14.57;100.00;97460.88;4951995;28;20883;-60
2023/10/08 00:38:14;;;;;;;3.77;3.27;;;;;;;14.67;100.00;97465.00;4995612;28;21430;-58
2023/10/08 00:40:45;;;;;;;5.03;3.47;;;;;;;14.67;100.00;97465.00;4991457;28;20207;-60
2023/10/08 00:43:33;;;;;;;3.60;3.30;;;;;;;14.68;100.00;97464.81;4997139;28;20286;-60
2023/10/08 00:46:01;;;;;;;4.27;3.07;;;;;;;14.63;100.00;97464.59;4989843;28;20432;-59
2023/10/08 00:48:35;;;;;;;4.43;4.03;;;;;;;14.51;100.00;97452.88;4997948;28;20268;-58
2023/10/08 00:51:25;;;;;;;3.77;3.37;;;;;;;14.53;100.00;97459.66;4994156;28;20799;-60
2023/10/08 00:54:05;;;;;;;4.90;3.63;;;;;;;14.44;100.00;97463.53;4996957;28;20767;-56
2023/10/08 00:56:50;;;;;;;3.63;3.33;;;;;;;14.43;100.00;97461.91;4904578;28;20221;-60
2023/10/08 00:59:20;;;;;;;3.53;3.23;;;;;;;14.33;100.00;97464.94;4998198;28;20220;-58
2023/10/08 01:01:51;;;;;;;4.30;3.23;;;;;;;14.27;100.00;97471.09;4944170;28;20220;-58
2023/10/08 01:04:22;;;;;;;4.93;3.63;;;;;;;14.18;100.00;97476.56;4995809;28;20245;-57
2023/10/08 01:06:54;;;;;;;4.00;3.40;;;;;;;14.15;100.00;97473.50;4949753;28;20209;-60
2023/10/08 01:09:31;;;;;;;4.07;3.50;;;;;;;14.07;100.00;97474.47;4994102;28;20605;-59
2023/10/08 01:12:15;;;;;;;3.83;3.43;;;;;;;13.98;100.00;97475.69;4991590;28;20208;-59
2023/10/08 01:14:43;;;;;;;3.30;3.00;;;;;;;13.95;100.00;97471.56;4996337;28;20284;-60
2023/10/08 01:17:16;;;;;;;5.47;4.20;;;;;;;13.92;100.00;97476.47;4992467;28;20612;-58
2023/10/08 01:19:45;;;;;;;4.17;3.77;;;;;;;13.83;100.00;97487.31;4995580;28;20343;-59
2023/10/08 01:22:19;;;;;;;4.03;3.63;;;;;;;13.82;100.00;97474.19;4991748;28;20225;-59
2023/10/08 01:24:48;;;;;;;6.83;4.30;;;;;;;13.85;100.00;97474.63;4995424;28;20232;-59
2023/10/08 01:27:21;;;;;;;3.87;3.50;;;;;;;13.84;100.00;97477.47;4993926;28;20564;-58
2023/10/08 01:29:50;;;;;;;4.10;3.70;;;;;;;13.79;100.00;97475.38;4972439;28;20235;-59
2023/10/08 01:32:19;;;;;;;4.10;3.70;;;;;;;13.85;100.00;97471.94;4930885;28;20236;-57
2023/10/08 01:34:47;;;;;;;5.43;4.00;;;;;;;13.85;100.00;97463.97;4990744;28;20243;-58
2023/10/08 01:37:18;;;;;;;4.23;3.83;;;;;;;13.88;100.00;97460.06;4958510;28;20255;-58
2023/10/08 01:39:47;;;;;;;3.83;3.53;;;;;;;13.88;100.00;97452.06;4992463;28;20765;-57
2023/10/08 01:42:20;;;;;;;3.97;3.67;;;;;;;13.87;100.00;97459.25;4992875;28;20250;-59
2023/10/08 01:44:50;;;;;;;4.30;3.90;;;;;;;13.83;100.00;97465.16;4992148;28;20213;-57
2023/10/08 01:47:19;;;;;;;4.00;3.70;;;;;;;13.79;100.00;97466.59;4994117;28;20205;-58
2023/10/08 01:49:47;;;;;;;4.27;3.90;;;;;;;13.72;100.00;97454.06;4993841;28;20253;-59
2023/10/08 01:52:21;;;;;;;6.43;4.10;;;;;;;13.73;100.00;97460.19;4996553;28;20861;-59
2023/10/08 01:54:53;;;;;;;3.77;3.47;;;;;;;13.69;100.00;97461.63;4993520;28;20205;-60
2023/10/08 01:57:21;;;;;;;6.50;4.10;;;;;;;13.67;100.00;97453.84;4995153;28;20256;-59
2023/10/08 01:59:52;;;;;;;4.33;3.93;;;;;;;13.66;100.00;97456.69;4974561;28;20236;-59
2023/10/08 02:02:20;;;;;;;5.77;4.37;;;;;;;13.56;100.00;97465.03;4933152;28;20205;-58
2023/10/08 02:04:47;;;;;;;7.13;4.07;;;;;;;13.53;100.00;97465.41;4994457;28;20212;-58
2023/10/08 02:07:15;;;;;;;4.80;3.70;;;;;;;13.47;100.00;97456.41;4994561;28;20212;-59
2023/10/08 02:09:44;;;;;;;4.40;4.00;;;;;;;13.42;100.00;97464.09;4993210;28;20697;-58
2023/10/08 02:12:14;;;;;;;4.33;3.93;;;;;;;13.40;100.00;97466.97;4955370;28;20212;-59
2023/10/08 02:14:42;;;;;;;4.80;4.27;;;;;;;13.29;100.00;97467.50;4997224;28;20246;-58
2023/10/08 02:17:10;;;;;;;6.20;4.40;;;;;;;13.28;100.00;97466.66;4993351;28;20217;-58
2023/10/08 02:19:38;;;;;;;3.97;3.37;;;;;;;13.15;100.00;97463.94;4992749;28;20311;-58
2023/10/08 02:22:09;;;;;;;4.20;3.90;;;;;;;13.16;100.00;97462.91;4994763;28;20664;-58
2023/10/08 02:24:37;;;;;;;4.33;3.73;;;;;;;13.15;100.00;97462.06;4987258;28;20228;-59
2023/10/08 02:27:06;;;;;;;3.90;3.57;;;;;;;13.15;100.00;97459.41;4989515;28;20213;-57
2023/10/08 02:29:35;;;;;;;3.87;3.47;;;;;;;13.12;100.00;97467.78;4996522;28;20342;-58
2023/10/08 02:32:04;;;;;;;5.17;4.03;;;;;;;13.17;100.00;97470.69;4990995;28;20213;-58
2023/10/08 02:34:32;;;;;;;4.40;3.70;;;;;;;13.16;100.00;97465.56;4996588;28;20274;-58
2023/10/08 02:37:00;;;;;;;4.73;3.90;;;;;;;13.23;100.00;97463.78;4901309;28;20256;-60
2023/10/08 02:39:29;;;;;;;4.30;3.67;;;;;;;13.23;100.00;97466.44;4995543;28;20310;-56
2023/10/08 02:41:59;;;;;;;6.93;4.33;;;;;;;13.21;100.00;97460.50;4945008;28;20477;-61
2023/10/08 02:44:28;;;;;;;4.37;3.70;;;;;;;13.17;100.00;97460.03;4997246;28;20310;-57
2023/10/08 02:46:57;;;;;;;5.13;3.93;;;;;;;13.18;100.00;97460.88;4990396;28;20743;-57
2023/10/08 02:49:25;;;;;;;4.93;4.23;;;;;;;13.17;100.00;97464.56;4993713;28;20727;-58
2023/10/08 02:51:54;;;;;;;3.63;3.37;;;;;;;13.17;100.00;97476.00;4993748;28;20228;-58
2023/10/08 02:54:31;;;;;;;4.93;3.77;;;;;;;13.15;100.00;97472.72;4994895;28;20299;-57
2023/10/08 02:57:03;;;;;;;6.47;4.00;;;;;;;13.15;100.00;97477.22;4988538;28;20217;-58
2023/10/08 02:59:39;;;;;;;4.73;3.77;;;;;;;13.14;100.00;97473.72;4996044;28;20643;-56
2023/10/08 03:02:13;;;;;;;4.10;3.70;;;;;;;13.09;100.00;97478.00;4929257;28;20232;-56
2023/10/08 03:04:42;;;;;;;4.03;3.60;;;;;;;13.07;100.00;97482.66;4996243;28;20291;-57
2023/10/08 03:07:20;;;;;;;5.40;3.47;;;;;;;13.07;100.00;97482.66;4899938;28;20529;-58
2023/10/08 03:09:50;;;;;;;3.77;3.40;;;;;;;13.04;100.00;97481.22;4991130;28;20227;-56
2023/10/08 03:12:18;;;;;;;3.77;3.40;;;;;;;12.99;100.00;97478.34;4946613;28;20205;-56
2023/10/08 03:15:01;;;;;;;3.83;3.30;;;;;;;12.92;100.00;97470.28;4995490;28;20627;-57
2023/10/08 03:17:30;;;;;;;3.90;3.50;;;;;;;12.90;100.00;97469.66;4993251;28;20217;-58
2023/10/08 03:20:27;;;;;;;3.53;3.30;;;;;;;12.88;100.00;97472.53;4990442;28;20222;-56
2023/10/08 03:22:46;;;;;;;3.90;3.60;;;;;;;12.86;100.00;97481.69;4991010;28;20267;-57
2023/10/08 03:25:16;;;;;;;4.00;3.60;;;;;;;12.83;100.00;97490.06;4994369;28;20211;-59
2023/10/08 03:27:44;;;;;;;3.80;3.50;;;;;;;12.82;100.00;97480.44;4928596;28;20209;-57
2023/10/08 03:30:14;;;;;;;4.13;3.73;;;;;;;12.81;100.00;97490.22;4992644;28;21417;-55
2023/10/08 03:32:45;;;;;;;3.97;3.67;;;;;;;12.80;100.00;97485.13;4947260;28;20956;-59
2023/10/08 03:35:13;;;;;;;3.93;3.60;;;;;;;12.85;100.00;97490.69;4984593;28;20291;-56
2023/10/08 03:37:46;;;;;;;4.77;4.20;;;;;;;12.79;100.00;97480.81;4928140;28;20233;-59
2023/10/08 03:40:32;;;;;;;5.93;4.03;;;;;;;12.84;100.00;97489.03;4971355;28;20379;-55
2023/10/08 03:43:00;;;;;;;4.23;3.83;;;;;;;12.83;100.00;97477.56;4941137;28;20797;-56
2023/10/08 03:48:14;;;;;;;4.13;3.83;;;;;;;12.76;100.00;97487.31;4994741;28;20227;-56
2023/10/08 03:50:43;;;;;;;5.03;3.70;;;;;;;12.70;100.00;97494.25;5001448;28;20296;-57
2023/10/08 03:53:11;;;;;;;3.57;3.27;;;;;;;12.59;100.00;97489.41;4995042;28;20197;-55
2023/10/08 03:55:41;;;;;;;4.13;3.73;;;;;;;12.53;100.00;97495.50;4993654;28;20321;-60
2023/10/08 03:58:17;;;;;;;3.77;3.40;;;;;;;12.45;100.00;97489.28;4992377;28;20221;-58
2023/10/08 04:00:46;;;;;;;5.80;4.47;;;;;;;12.44;100.00;97495.63;4995013;28;20220;-57
2023/10/08 04:03:23;;;;;;;4.87;4.37;;;;;;;12.39;100.00;97495.34;4996572;28;20214;-58
2023/10/08 04:06:03;;;;;;;5.13;4.07;;;;;;;12.33;100.00;97506.75;4994356;28;20205;-58
2023/10/08 04:08:43;;;;;;;5.03;3.87;;;;;;;12.24;100.00;97521.13;4891011;28;20264;-56
2023/10/08 04:11:28;;;;;;;4.43;4.03;;;;;;;12.14;100.00;97514.28;4997845;28;20240;-58
2023/10/08 04:13:59;;;;;;;4.90;4.40;;;;;;;12.08;100.00;97519.50;4946952;28;20296;-57
2023/10/08 04:16:27;;;;;;;3.70;3.40;;;;;;;12.00;100.00;97515.94;4996182;28;20300;-60
2023/10/08 04:18:57;;;;;;;3.30;3.00;;;;;;;11.96;100.00;97519.13;4996865;28;20603;-60
2023/10/08 04:21:27;;;;;;;3.80;3.50;;;;;;;11.95;100.00;97520.16;5000121;28;20229;-60
2023/10/08 04:23:57;;;;;;;4.03;3.73;;;;;;;11.85;100.00;97518.56;4992397;28;20202;-57
2023/10/08 04:26:25;;;;;;;5.00;4.10;;;;;;;11.83;100.00;97519.78;4990372;28;20206;-58
2023/10/08 04:28:57;;;;;;;4.27;3.87;;;;;;;11.78;100.00;97516.84;4992457;28;20291;-58
2023/10/08 04:31:28;;;;;;;4.23;3.67;;;;;;;11.82;100.00;97513.63;4981751;28;20209;-57
2023/10/08 04:34:00;;;;;;;4.60;3.90;;;;;;;11.79;100.00;97514.00;4988740;28;20580;-58
2023/10/08 04:36:28;;;;;;;5.73;4.10;;;;;;;11.71;100.00;97517.56;4990441;28;20208;-56
2023/10/08 04:39:02;;;;;;;4.37;3.97;;;;;;;11.76;100.00;97529.50;4891306;28;20229;-58
2023/10/08 04:41:30;;;;;;;4.13;3.73;;;;;;;11.68;100.00;97523.25;4990003;28;21151;-57
2023/10/08 04:43:58;;;;;;;4.60;3.97;;;;;;;11.64;100.00;97518.50;4947485;28;20576;-59
2023/10/08 04:46:46;;;;;;;5.53;5.00;;;;;;;11.62;100.00;97513.34;4997451;28;20344;-58
2023/10/08 04:52:09;;;;;;;4.90;4.50;;;;;;;11.78;100.00;97535.44;4990732;28;20232;-57
2023/10/08 04:54:40;;;;;;;4.63;4.23;;;;;;;11.85;100.00;97529.19;4991739;28;20216;-58
2023/10/08 04:57:14;;;;;;;4.10;3.70;;;;;;;11.91;100.00;97524.16;4995160;28;20208;-60
2023/10/08 04:59:43;;;;;;;3.97;3.60;;;;;;;11.92;100.00;97523.97;4948446;28;20248;-58
2023/10/08 05:02:19;;;;;;;4.07;3.77;;;;;;;11.96;100.00;97530.56;4996089;28;20197;-60
2023/10/08 05:05:21;;;;;;;4.73;3.97;;;;;;;12.06;100.00;97525.00;4992929;28;20204;-56
2023/10/08 05:11:00;;;;;;;4.00;3.70;;;;;;;12.21;100.00;97501.09;4962399;28;20213;-58
2023/10/08 05:13:34;;;;;;;6.47;4.70;;;;;;;12.20;100.00;97504.75;4949258;28;20857;-59
2023/10/08 05:16:29;;;;;;;4.80;4.10;;;;;;;12.24;100.00;97529.09;4994823;28;20200;-54
2023/10/08 05:19:24;;;;;;;4.17;3.80;;;;;;;12.27;100.00;97534.03;4992042;28;20577;-59
2023/10/08 05:22:05;;;;;;;5.07;4.37;;;;;;;12.21;100.00;97540.94;4997399;28;20205;-59
2023/10/08 05:24:38;;;;;;;4.57;4.17;;;;;;;12.29;100.00;97535.50;4992362;28;20758;-56
2023/10/08 05:32:51;;;;;;;6.37;4.10;;;;;;;12.50;100.00;97527.75;4996439;28;20227;-59
2023/10/08 05:35:38;;;;;;;5.40;4.03;;;;;;;12.56;100.00;97503.91;4991266;28;20703;-58
2023/10/08 05:38:16;;;;;;;3.90;3.60;;;;;;;12.63;100.00;97497.84;4931099;28;20981;-59
2023/10/08 05:43:48;;;;;;;5.50;3.63;;;;;;;12.76;100.00;97499.81;4946408;28;20303;-59
2023/10/08 05:49:03;;;;;;;4.73;4.27;;;;;;;12.79;100.00;97500.25;4972499;28;20217;-59
2023/10/08 05:51:44;;;;;;;7.17;3.37;;;;;;;12.89;100.00;97505.25;4960115;28;20212;-58
2023/10/08 05:54:35;;;;;;;4.40;3.97;;;;;;;12.98;100.00;97500.63;4996216;28;20279;-58
2023/10/08 05:57:14;;;;;;;5.77;3.90;;;;;;;12.90;100.00;97496.25;4992249;28;20216;-57
2023/10/08 06:00:21;;;;;;;6.67;3.70;;;;;;;13.00;100.00;97493.28;4950166;28;20530;-55
2023/10/08 06:03:00;;;;;;;5.53;4.33;;;;;;;13.03;100.00;97496.34;4993764;28;20212;-60
2023/10/08 06:05:33;;;;;;;6.80;4.60;;;;;;;13.08;100.00;97479.03;4989454;28;20236;-58
2023/10/08 06:08:12;;;;;;;6.67;4.40;;;;;;;13.01;100.00;97474.44;4993762;28;20221;-59
2023/10/08 06:10:54;;;;;;;4.30;3.50;;;;;;;13.21;100.00;97478.28;4893474;28;20765;-60
2023/10/08 06:13:29;;;;;;;4.63;3.77;;;;;;;13.32;100.00;97483.88;4997518;28;20776;-60
2023/10/08 06:16:05;;;;;;;4.57;3.90;;;;;;;13.43;100.00;97481.72;4951428;28;20587;-61
2023/10/08 06:18:34;;;;;;;4.17;3.77;;;;;;;13.48;100.00;97475.84;4996813;28;20252;-57
2023/10/08 06:21:07;;;;;;;5.87;3.97;;;;;;;13.41;100.00;97481.06;4994329;28;20205;-60
2023/10/08 06:23:36;;;;;;;4.77;4.13;;;;;;;13.56;100.00;97481.00;4995878;28;20267;-58
2023/10/08 06:26:14;;;;;;;5.53;5.00;;;;;;;13.70;100.00;97487.22;4993091;28;20718;-55
2023/10/08 06:28:43;;;;;;;7.50;3.40;;;;;;;13.78;100.00;97488.91;4993985;28;20660;-58
2023/10/08 06:31:16;;;;;;;4.20;3.40;;;;;;;13.83;100.00;97494.47;4991533;28;20645;-58
2023/10/08 06:33:44;;;;;;;4.30;3.83;;;;;;;13.94;100.00;97498.41;4994518;28;20213;-59
2023/10/08 06:36:15;;;;;;;3.83;3.43;;;;;;;14.05;100.00;97492.50;4950196;28;20217;-59
2023/10/08 06:38:48;;;;;;;3.87;3.57;;;;;;;14.12;100.00;97488.03;4995116;28;20242;-58
2023/10/08 06:41:18;;;;;;;4.47;4.07;;;;;;;14.17;100.00;97506.91;4888505;28;20205;-57
2023/10/08 06:44:06;;;;;;;5.00;4.37;;;;;;;14.21;100.00;97503.88;4981293;28;20664;-58
2023/10/08 06:46:34;;;;;;;3.80;3.40;;;;;;;14.18;100.00;97510.41;4965426;28;20217;-58
2023/10/08 06:49:05;;;;;;;4.70;4.07;;;;;;;14.38;100.00;97510.47;4994961;28;20233;-57
2023/10/08 06:51:33;;;;;;;5.27;3.97;;;;;;;14.50;100.00;97528.53;4992092;28;20288;-58
2023/10/08 06:54:02;;;;;;;4.60;4.17;;;;;;;14.50;100.00;97517.88;4996217;28;20337;-58
2023/10/08 06:56:32;;;;;;;3.87;3.47;;;;;;;14.59;100.00;97514.84;4992526;28;20209;-58
2023/10/08 06:59:01;;;;;;;4.90;4.20;;;;;;;14.57;100.00;97508.88;4992512;28;20233;-59
2023/10/08 07:01:38;;;;;;;4.47;4.03;;;;;;;14.59;100.00;97512.16;4994214;28;20261;-57
2023/10/08 07:04:11;;;;;;;4.67;3.77;;;;;;;14.66;100.00;97506.03;4991484;28;20216;-58
2023/10/08 07:06:40;;;;;;;5.60;3.40;;;;;;;14.72;100.00;97514.06;4994253;28;20280;-59
2023/10/08 07:09:22;;;;;;;4.37;4.00;;;;;;;14.74;100.00;97536.03;4956805;28;20787;-59
2023/10/08 07:11:54;;;;;;;6.57;5.37;;;;;;;14.79;100.00;97550.59;4967664;28;20216;-59
2023/10/08 07:14:26;;;;;;;4.40;3.93;;;;;;;14.96;100.00;97548.38;4992482;28;20284;-59
2023/10/08 07:16:58;;;;;;;6.63;3.77;;;;;;;15.02;100.00;97540.38;5000992;28;20587;-55
2023/10/08 07:19:32;;;;;;;5.40;4.90;;;;;;;15.15;100.00;97546.75;4939137;28;20235;-58
2023/10/08 07:22:06;;;;;;;9.47;4.47;;;;;;;15.08;100.00;97552.06;4985258;28;20231;-58
2023/10/08 07:24:36;;;;;;;12.20;5.70;;;;;;;15.11;100.00;97562.34;4959708;28;20213;-61
2023/10/08 07:27:08;;;;;;;15.47;5.20;;;;;;;15.20;100.00;97573.66;4996754;28;20205;-61
2023/10/08 07:29:37;;;;;;;9.40;5.00;;;;;;;14.94;100.00;97590.44;4995704;28;20225;-61
2023/10/08 07:32:11;;;;;;;7.20;4.97;;;;;;;15.03;100.00;97587.41;4986106;28;20219;-60
2023/10/08 07:34:39;;;;;;;9.27;5.00;;;;;;;15.05;100.00;97582.66;4964662;28;20219;-60
2023/10/08 07:37:07;;;;;;;8.07;4.37;;;;;;;14.89;100.00;97601.72;4995944;28;20623;-60
2023/10/08 07:39:35;;;;;;;4.17;3.87;;;;;;;15.02;100.00;97593.75;4994203;28;20225;-58
2023/10/08 07:42:09;;;;;;;4.47;4.00;;;;;;;15.19;100.00;97585.34;4979842;28;20265;-58
2023/10/08 07:44:38;;;;;;;5.23;4.47;;;;;;;15.27;100.00;97574.47;4888516;28;23427;-58
2023/10/08 07:47:10;;;;;;;4.33;3.93;;;;;;;15.50;100.00;97562.56;4994931;28;20211;-59
2023/10/08 07:49:38;;;;;;;6.00;4.47;;;;;;;15.72;100.00;97568.50;4949497;28;20340;-60
2023/10/08 07:52:06;;;;;;;7.83;5.57;;;;;;;15.77;100.00;97566.03;4943016;28;20224;-62
2023/10/08 07:54:34;;;;;;;4.77;3.93;;;;;;;15.94;100.00;97570.13;4999469;28;20555;-60
2023/10/08 07:57:09;;;;;;;4.90;4.07;;;;;;;16.23;100.00;97573.34;4996404;28;20208;-60
2023/10/08 07:59:41;;;;;;;6.33;4.00;;;;;;;16.32;100.00;97566.75;4997398;28;20228;-57
2023/10/08 08:02:11;;;;;;;5.57;4.40;;;;;;;16.43;100.00;97568.75;4948027;28;20375;-57
2023/10/08 08:04:39;;;;;;;8.60;4.00;;;;;;;16.62;100.00;97577.72;5002465;28;20199;-56
2023/10/08 08:07:08;;;;;;;4.90;3.80;;;;;;;16.67;100.00;97578.91;4995313;28;20201;-59
2023/10/08 08:09:37;;;;;;;5.30;4.40;;;;;;;16.92;100.00;97608.44;4999138;28;20316;-58
2023/10/08 08:12:11;;;;;;;6.33;4.20;;;;;;;16.74;100.00;97604.63;4996337;28;20225;-58
2023/10/08 08:14:41;;;;;;;4.50;4.10;;;;;;;16.91;100.00;97623.69;4999570;28;20352;-60
2023/10/08 08:17:14;;;;;;;6.40;3.90;;;;;;;16.83;100.00;97631.13;4884078;28;20748;-59
2023/10/08 08:19:44;;;;;;;5.17;4.67;;;;;;;17.06;100.00;97634.13;4994682;28;20596;-58
2023/10/08 08:22:15;;;;;;;4.83;3.63;;;;;;;16.97;100.00;97637.22;4949179;28;20666;-58
2023/10/08 08:24:44;;;;;;;4.67;4.10;;;;;;;16.94;100.00;97643.84;4994721;28;20284;-60
2023/10/08 08:27:23;;;;;;;5.13;3.93;;;;;;;16.92;100.00;97651.28;4993897;28;20299;-58
2023/10/08 08:29:55;;;;;;;7.53;3.90;;;;;;;17.07;100.00;97649.16;4992994;28;20280;-58
2023/10/08 08:32:23;;;;;;;5.17;4.27;;;;;;;17.06;100.00;97652.88;4934428;28;20697;-56
2023/10/08 08:34:52;;;;;;;4.27;3.70;;;;;;;17.03;100.00;97660.50;4997551;28;20209;-57
2023/10/08 08:37:22;;;;;;;6.60;4.87;;;;;;;17.09;100.00;97673.03;4954380;28;20206;-59
2023/10/08 08:39:51;;;;;;;4.30;3.83;;;;;;;16.95;100.00;97672.25;5003141;28;20336;-59
2023/10/08 08:42:21;;;;;;;5.43;4.13;;;;;;;17.08;100.00;97671.41;4941607;28;20212;-58
2023/10/08 08:44:50;;;;;;;8.17;4.73;;;;;;;17.04;100.00;97664.81;4945986;28;21097;-61
2023/10/08 08:47:24;;;;;;;7.00;4.53;;;;;;;17.11;100.00;97667.47;4968445;28;20217;-59
2023/10/08 08:49:55;;;;;;;6.10;4.00;;;;;;;17.22;100.00;97677.47;4939617;28;20236;-59
2023/10/08 08:52:23;;;;;;;8.03;5.03;;;;;;;17.28;100.00;97676.66;4985777;28;20197;-59
2023/10/08 08:54:51;;;;;;;4.80;4.30;;;;;;;17.56;100.00;97678.09;4963310;28;20299;-60
2023/10/08 08:57:20;;;;;;;7.57;4.80;;;;;;;17.78;100.00;97680.44;4985013;28;20224;-59
2023/10/08 08:59:53;;;;;;;6.37;4.20;;;;;;;17.91;100.00;97666.09;4952547;28;20236;-59
2023/10/08 09:02:23;;;;;;;5.67;5.10;;;;;;;18.06;100.00;97661.22;4980578;28;20292;-56
2023/10/08 09:04:53;;;;;;;6.60;4.80;;;;;;;18.13;100.00;97657.66;4966211;28;20271;-57
2023/10/08 09:07:23;;;;;;;5.77;4.50;;;;;;;18.29;100.00;97645.53;4976396;28;20220;-58
2023/10/08 09:09:50;;;;;;;5.30;4.40;;;;;;;18.30;100.00;97639.13;4957646;28;20224;-58
2023/10/08 09:12:21;;;;;;;5.57;4.53;;;;;;;18.06;100.00;97614.84;4995329;28;20235;-58
2023/10/08 09:14:49;;;;;;;6.13;4.30;;;;;;;18.06;100.00;97604.94;4995887;28;20856;-54
2023/10/08 09:17:17;;;;;;;5.30;4.80;;;;;;;18.02;100.00;97590.34;4994211;28;20212;-58
2023/10/08 09:19:46;;;;;;;5.00;4.30;;;;;;;17.90;100.00;97592.88;4994611;28;20324;-59
2023/10/08 09:22:15;;;;;;;6.03;4.57;;;;;;;17.69;100.00;97578.03;4984942;28;20300;-58
2023/10/08 09:24:43;;;;;;;7.37;5.33;;;;;;;17.71;100.00;97578.63;4907322;28;20315;-58
2023/10/08 09:27:14;;;;;;;4.77;4.07;;;;;;;17.85;100.00;97579.34;4936619;28;20688;-58
2023/10/08 09:29:42;;;;;;;6.00;4.33;;;;;;;17.59;100.00;97564.34;4992785;28;20379;-58
2023/10/08 09:32:11;;;;;;;5.13;4.47;;;;;;;17.48;100.00;97569.38;4983242;28;20217;-58
2023/10/08 09:34:41;;;;;;;5.77;5.27;;;;;;;17.26;100.00;97576.97;4991513;28;20211;-59
2023/10/08 09:37:11;;;;;;;5.10;4.20;;;;;;;17.20;100.00;97578.66;4995577;28;20300;-56
2023/10/08 09:39:40;;;;;;;5.03;4.30;;;;;;;17.17;100.00;97600.50;4950072;28;20240;-58
2023/10/08 09:42:11;;;;;;;6.27;4.73;;;;;;;17.26;100.00;97601.06;4994428;28;20232;-57
2023/10/08 09:44:39;;;;;;;10.63;4.67;;;;;;;17.30;100.00;97607.63;4988364;28;20301;-59
2023/10/08 09:47:10;;;;;;;8.40;5.00;;;;;;;17.25;100.00;97603.94;4994256;28;20205;-56
2023/10/08 09:49:41;;;;;;;6.80;4.87;;;;;;;17.29;100.00;97619.38;4971976;28;20236;-57
2023/10/08 09:52:12;;;;;;;5.77;4.67;;;;;;;17.40;100.00;97633.91;4994565;28;20201;-59
2023/10/08 09:54:46;;;;;;;6.73;4.27;;;;;;;17.39;100.00;97648.34;4915939;28;20212;-56
2023/10/08 09:57:18;;;;;;;8.77;5.67;;;;;;;17.53;100.00;97648.25;4998723;28;20212;-58
2023/10/08 09:59:48;;;;;;;5.77;4.70;;;;;;;17.41;100.00;97654.28;4993965;28;20777;-56
2023/10/08 10:02:16;;;;;;;7.63;5.07;;;;;;;17.32;100.00;97667.16;4995442;28;20891;-60
2023/10/08 10:04:45;;;;;;;4.93;4.40;;;;;;;17.18;100.00;97665.56;4958045;28;20980;-60
2023/10/08 10:07:16;;;;;;;5.40;4.87;;;;;;;17.02;100.00;97670.41;4974697;28;20436;-59
2023/10/08 10:09:46;;;;;;;5.30;3.93;;;;;;;17.09;100.00;97675.72;4992447;28;20255;-58
2023/10/08 10:12:25;;;;;;;5.27;4.77;;;;;;;17.19;100.00;97678.75;4997371;28;20201;-58
2023/10/08 10:14:55;;;;;;;7.43;4.93;;;;;;;17.32;100.00;97677.03;4989117;28;20416;-59
2023/10/08 10:17:25;;;;;;;7.37;5.13;;;;;;;17.39;100.00;97680.47;4987509;28;20300;-59
2023/10/08 10:20:13;;;;;;;7.37;4.53;;;;;;;17.58;100.00;97684.06;4936796;28;20238;-57
2023/10/08 10:22:45;;;;;;;10.03;5.03;;;;;;;17.83;100.00;97680.59;4992973;28;20201;-58
2023/10/08 10:25:17;;;;;;;5.50;4.93;;;;;;;17.87;100.00;97684.47;4938204;28;20215;-58
2023/10/08 10:28:22;;;;;;;6.13;5.00;;;;;;;17.97;100.00;97685.81;4908804;28;20232;-57
2023/10/08 10:30:51;;;;;;;8.50;4.50;;;;;;;18.22;100.00;97686.66;4994606;28;20742;-56
2023/10/08 10:33:19;;;;;;;7.70;5.10;;;;;;;18.34;100.00;97688.59;4993405;28;20271;-59
2023/10/08 10:35:54;;;;;;;4.80;4.30;;;;;;;18.43;100.00;97683.78;4999271;28;20232;-58
2023/10/08 10:38:26;;;;;;;8.33;6.17;;;;;;;18.40;100.00;97685.06;4938145;28;20262;-60
2023/10/08 10:40:57;;;;;;;6.40;4.97;;;;;;;18.37;100.00;97694.38;4993194;28;20259;-58
2023/10/08 10:43:31;;;;;;;6.40;5.23;;;;;;;18.39;100.00;97694.16;4935768;28;20217;-59
2023/10/08 10:46:19;;;;;;;6.30;5.03;;;;;;;18.48;100.00;97675.88;4993044;28;20283;-58
2023/10/08 10:48:57;;;;;;;5.53;5.03;;;;;;;18.84;100.00;97695.72;4990898;28;20224;-58
2023/10/08 10:51:24;;;;;;;6.50;4.50;;;;;;;19.03;100.00;97690.38;4985142;28;20331;-60
2023/10/08 10:54:01;;;;;;;5.70;5.20;;;;;;;19.18;100.00;97698.81;4966783;28;20712;-56
2023/10/08 10:56:30;;;;;;;5.87;4.90;;;;;;;19.12;100.00;97693.53;4957280;28;20214;-59
2023/10/08 10:58:59;;;;;;;5.47;4.47;;;;;;;18.92;100.00;97695.41;4955286;28;20247;-59
2023/10/08 11:01:29;;;;;;;7.57;5.30;;;;;;;19.00;100.00;97690.81;4997726;28;20260;-59
2023/10/08 11:03:57;;;;;;;7.67;4.90;;;;;;;19.29;100.00;97680.28;5002276;28;20770;-59
2023/10/08 11:06:26;;;;;;;6.10;4.60;;;;;;;19.35;100.00;97668.66;4981562;28;20545;-60
2023/10/08 11:08:56;;;;;;;6.40;5.77;;;;;;;19.20;100.00;97669.88;4969057;28;20890;-58
2023/10/08 11:11:28;;;;;;;5.97;5.23;;;;;;;19.13;100.00;97679.91;4996566;28;20271;-59
2023/10/08 11:14:00;;;;;;;7.87;5.63;;;;;;;19.05;100.00;97669.47;4998656;28;20856;-59
2023/10/08 11:16:31;;;;;;;7.20;5.00;;;;;;;18.94;100.00;97665.66;4995894;28;20580;-59
2023/10/08 11:19:06;;;;;;;5.73;4.73;;;;;;;18.89;100.00;97660.94;4996223;28;20878;-57
2023/10/08 11:21:50;;;;;;;9.43;4.50;;;;;;;18.62;100.00;97645.19;4994455;28;20224;-60
2023/10/08 11:24:29;;;;;;;4.60;4.20;;;;;;;18.52;100.00;97666.34;4998720;28;20205;-58
2023/10/08 11:27:10;;;;;;;11.57;5.20;;;;;;;18.42;100.00;97650.78;4995978;28;20829;-58
2023/10/08 11:29:43;;;;;;;7.00;4.53;;;;;;;18.36;100.00;97641.75;4995538;28;20929;-58
2023/10/08 11:32:12;;;;;;;8.97;5.77;;;;;;;18.35;100.00;97645.47;4913471;28;20643;-55
2023/10/08 11:34:40;;;;;;;9.77;5.37;;;;;;;18.33;100.00;97663.66;4998154;28;20315;-60
2023/10/08 11:37:19;;;;;;;6.80;4.90;;;;;;;18.46;100.00;97678.81;4996532;28;20841;-57
2023/10/08 11:39:50;;;;;;;6.03;4.80;;;;;;;18.64;100.00;97677.16;4995709;28;20228;-58
2023/10/08 11:42:40;;;;;;;5.13;4.63;;;;;;;18.80;100.00;97676.56;4992902;28;20371;-58
2023/10/08 11:45:24;;;;;;;5.80;4.73;;;;;;;19.25;100.00;97677.25;4997050;28;20205;-57
2023/10/08 11:47:55;;;;;;;5.63;5.10;;;;;;;19.53;100.00;97676.63;4996851;28;20197;-58
2023/10/08 11:50:30;;;;;;;7.53;5.03;;;;;;;19.51;100.00;97676.06;4994554;28;20287;-60
2023/10/08 11:53:02;;;;;;;7.93;4.97;;;;;;;19.65;100.00;97671.28;4994463;28;20196;-57
2023/10/08 11:55:35;;;;;;;8.47;5.27;;;;;;;19.47;100.00;97669.50;4997095;28;20209;-58
2023/10/08 11:58:09;;;;;;;7.47;4.70;;;;;;;19.49;100.00;97669.25;4950349;28;20213;-59
2023/10/08 12:00:43;;;;;;;5.20;4.47;;;;;;;19.49;100.00;97667.41;4995154;28;20207;-58
2023/10/08 12:03:12;;;;;;;4.70;4.30;;;;;;;19.65;100.00;97654.34;4991929;28;20615;-57
2023/10/08 12:05:47;;;;;;;8.70;5.30;;;;;;;19.73;100.00;97655.88;4997500;28;20528;-58
2023/10/08 12:08:16;;;;;;;5.20;4.70;;;;;;;20.08;100.00;97660.50;4913992;28;20240;-59